createdAt,value
2018-12-12T00:00:31.579Z,3.93
2018-12-12T00:03:34.763Z,4.30
2018-12-12T00:06:38.017Z,3.63
2018-12-12T00:09:41.191Z,2.87
2018-12-12T00:12:44.560Z,3.33
2018-12-12T00:15:48.811Z,4.83
2018-12-12T00:18:52.285Z,3.47
2018-12-12T00:21:55.519Z,2.83
2018-12-12T00:24:58.675Z,2.57
2018-12-12T00:28:01.835Z,2.53
2018-12-12T00:31:05.018Z,3.73
2018-12-12T00:34:08.218Z,3.33
2018-12-12T00:37:11.625Z,5.13
2018-12-12T00:40:14.807Z,2.33
2018-12-12T00:43:17.984Z,3.40
2018-12-12T00:46:21.189Z,2.43
2018-12-12T00:49:24.459Z,2.27
2018-12-12T00:52:27.641Z,3.63
2018-12-12T00:55:30.884Z,2.60
2018-12-12T00:58:34.040Z,4.37
2018-12-12T01:01:38.063Z,3.27
2018-12-12T01:04:41.226Z,3.50
2018-12-12T01:07:44.395Z,2.57
2018-12-12T01:10:49.554Z,4.60
2018-12-12T01:13:52.741Z,3.10
2018-12-12T01:16:55.925Z,3.37
2018-12-12T01:19:59.533Z,3.50
2018-12-12T01:23:03.202Z,3.63
2018-12-12T01:26:06.862Z,2.80
2018-12-12T01:29:10.531Z,2.60
2018-12-12T01:32:13.755Z,3.73
2018-12-12T01:35:17.298Z,4.20
2018-12-12T01:38:21.119Z,2.37
2018-12-12T01:41:24.270Z,3.43
2018-12-12T01:44:27.560Z,3.13
2018-12-12T01:47:31.363Z,4.50
2018-12-12T01:50:34.520Z,2.90
2018-12-12T01:53:38.571Z,3.60
2018-12-12T01:56:41.871Z,2.93
2018-12-12T01:59:45.105Z,3.50
2018-12-12T02:02:48.344Z,3.10
2018-12-12T02:05:51.550Z,3.00
2018-12-12T02:08:54.742Z,5.83
2018-12-12T02:11:58.001Z,9.30
2018-12-12T02:15:01.181Z,4.33
2018-12-12T02:18:04.490Z,5.60
2018-12-12T02:21:07.744Z,4.27
2018-12-12T02:24:10.978Z,7.37
2018-12-12T02:27:14.165Z,4.70
2018-12-12T02:30:17.848Z,3.77
2018-12-12T02:33:21.053Z,5.30
2018-12-12T02:36:24.470Z,3.70
2018-12-12T02:39:27.613Z,5.30
2018-12-12T02:42:30.798Z,3.40
2018-12-12T02:45:33.987Z,4.27
2018-12-12T02:48:37.193Z,4.33
2018-12-12T02:51:40.543Z,3.50
2018-12-12T02:54:44.291Z,3.10
2018-12-12T02:57:47.523Z,4.27
2018-12-12T03:00:50.707Z,2.87
2018-12-12T03:03:53.913Z,5.17
2018-12-12T03:06:57.093Z,4.63
2018-12-12T03:10:00.225Z,4.20
2018-12-12T03:13:03.458Z,2.70
2018-12-12T03:16:07.816Z,3.13
2018-12-12T03:19:10.972Z,2.43
2018-12-12T03:22:14.188Z,5.30
2018-12-12T03:25:17.937Z,4.23
2018-12-12T03:28:21.102Z,4.43
2018-12-12T03:31:24.259Z,3.03
2018-12-12T03:34:27.573Z,2.37
2018-12-12T03:37:31.402Z,2.67
2018-12-12T03:40:35.336Z,2.80
2018-12-12T03:43:38.500Z,2.70
2018-12-12T03:46:43.024Z,2.83
2018-12-12T03:49:46.203Z,3.00
2018-12-12T03:52:49.424Z,3.87
2018-12-12T03:55:52.622Z,2.87
2018-12-12T03:58:55.800Z,2.63
2018-12-12T04:01:59.106Z,3.80
2018-12-12T04:05:02.273Z,3.40
2018-12-12T04:08:05.523Z,3.20
2018-12-12T04:11:10.322Z,3.87
2018-12-12T04:14:13.611Z,3.93
2018-12-12T04:17:16.845Z,3.43
2018-12-12T04:20:20.007Z,3.97
2018-12-12T04:23:24.863Z,3.60
2018-12-12T04:26:28.020Z,4.73
2018-12-12T04:29:31.216Z,4.63
2018-12-12T04:32:34.460Z,4.97
2018-12-12T04:35:37.642Z,6.07
2018-12-12T04:38:41.276Z,4.37
2018-12-12T04:41:44.427Z,6.23
2018-12-12T04:44:47.614Z,6.67
2018-12-12T04:47:51.091Z,5.37
2018-12-12T04:50:54.333Z,6.83
2018-12-12T04:53:57.473Z,6.33
2018-12-12T04:57:00.685Z,5.33
2018-12-12T05:00:04.181Z,6.70
2018-12-12T05:03:07.352Z,7.07
2018-12-12T05:06:10.558Z,7.27
2018-12-12T05:09:13.727Z,6.03
2018-12-12T05:12:16.983Z,6.13
2018-12-12T05:15:20.136Z,6.30
2018-12-12T05:18:23.366Z,6.73
2018-12-12T05:21:27.196Z,5.87
2018-12-12T05:24:30.342Z,8.10
2018-12-12T05:27:33.773Z,5.60
2018-12-12T05:30:37.160Z,6.20
2018-12-12T05:33:40.457Z,5.87
2018-12-12T05:36:43.643Z,10.70
2018-12-12T05:39:46.839Z,7.33
2018-12-12T05:42:49.999Z,7.53
2018-12-12T05:45:53.359Z,8.77
2018-12-12T05:48:57.725Z,10.47
2018-12-12T05:52:00.936Z,9.57
2018-12-12T05:55:04.338Z,10.77
2018-12-12T05:58:07.533Z,8.93
2018-12-12T06:01:11.147Z,7.97
2018-12-12T06:04:14.595Z,10.73
2018-12-12T06:07:17.771Z,11.77
2018-12-12T06:10:20.929Z,7.53
2018-12-12T06:13:24.105Z,8.43
2018-12-12T06:16:27.259Z,7.23
2018-12-12T06:19:30.542Z,9.13
2018-12-12T06:22:37.674Z,11.53
2018-12-12T06:25:39.234Z,9.13
2018-12-12T06:28:42.902Z,9.97
2018-12-12T06:31:46.179Z,9.20
2018-12-12T06:34:49.315Z,9.57
2018-12-12T06:37:52.571Z,8.80
2018-12-12T06:40:56.350Z,11.10
2018-12-12T06:43:59.524Z,11.10
2018-12-12T06:47:04.340Z,12.17
2018-12-12T06:50:08.216Z,11.57
2018-12-12T06:53:11.433Z,11.40
2018-12-12T06:56:14.603Z,15.57
2018-12-12T06:59:18.178Z,8.67
2018-12-12T07:02:21.374Z,15.90
2018-12-12T07:05:24.640Z,9.40
2018-12-12T07:08:27.993Z,9.50
2018-12-12T07:11:31.287Z,10.43
2018-12-12T07:14:34.548Z,7.97
2018-12-12T07:17:39.507Z,8.00
2018-12-12T07:20:42.812Z,8.43
2018-12-12T07:23:47.207Z,8.67
2018-12-12T07:26:50.546Z,10.97
2018-12-12T07:29:53.802Z,5.87
2018-12-12T07:32:57.232Z,5.67
2018-12-12T07:36:00.446Z,6.43
2018-12-12T07:39:05.448Z,4.87
2018-12-12T07:42:08.674Z,6.33
2018-12-12T07:45:12.203Z,3.83
2018-12-12T07:48:15.503Z,5.40
2018-12-12T07:51:18.662Z,5.03
2018-12-12T07:54:21.831Z,4.97
2018-12-12T07:57:25.188Z,4.80
2018-12-12T08:00:28.453Z,4.40
2018-12-12T08:03:31.698Z,3.90
2018-12-12T08:06:35.004Z,3.90
2018-12-12T08:09:38.216Z,5.17
2018-12-12T08:12:41.446Z,5.73
2018-12-12T08:15:44.747Z,4.57
2018-12-12T08:18:48.269Z,5.03
2018-12-12T08:21:51.503Z,4.67
2018-12-12T08:24:54.714Z,3.70
2018-12-12T08:27:57.979Z,3.60
2018-12-12T08:31:01.254Z,3.60
2018-12-12T08:34:05.771Z,4.50
2018-12-12T08:37:09.344Z,4.20
2018-12-12T08:40:12.523Z,3.93
2018-12-12T08:43:15.707Z,3.57
2018-12-12T08:46:19.005Z,3.83
2018-12-12T08:49:22.729Z,4.83
2018-12-12T08:52:25.977Z,3.27
2018-12-12T08:55:30.353Z,4.10
2018-12-12T08:58:34.642Z,3.50
2018-12-12T09:01:37.963Z,3.60
2018-12-12T09:04:42.640Z,3.50
2018-12-12T09:07:46.200Z,4.83
2018-12-12T09:10:49.418Z,4.20
2018-12-12T09:13:52.569Z,4.53
2018-12-12T09:16:55.783Z,4.73
2018-12-12T09:19:58.929Z,4.37
2018-12-12T09:23:02.089Z,4.43
2018-12-12T09:26:05.430Z,6.80
2018-12-12T09:29:08.677Z,5.83
2018-12-12T09:32:11.962Z,3.77
2018-12-12T09:35:15.316Z,3.53
2018-12-12T09:38:18.636Z,5.77
2018-12-12T09:41:21.816Z,4.30
2018-12-12T09:44:25.625Z,4.90
2018-12-12T09:47:29.261Z,5.20
2018-12-12T09:50:32.662Z,6.93
2018-12-12T09:53:35.825Z,5.63
2018-12-12T09:56:39.020Z,5.30
2018-12-12T09:59:42.331Z,6.47
2018-12-12T10:02:45.552Z,5.77
2018-12-12T10:05:48.796Z,11.50
2018-12-12T10:08:52.058Z,7.97
2018-12-12T10:11:55.269Z,5.50
2018-12-12T10:14:58.737Z,4.93
2018-12-12T10:18:02.065Z,7.97
2018-12-12T10:21:05.415Z,6.90
2018-12-12T10:24:08.621Z,5.73
2018-12-12T10:27:11.762Z,4.37
2018-12-12T10:30:15.029Z,5.07
2018-12-12T10:33:18.211Z,6.10
2018-12-12T10:36:21.511Z,5.20
2018-12-12T10:39:24.800Z,5.07
2018-12-12T10:42:28.100Z,6.43
2018-12-12T10:45:31.382Z,5.30
2018-12-12T10:48:34.634Z,6.47
2018-12-12T10:51:37.809Z,5.13
2018-12-12T10:54:41.084Z,5.53
2018-12-12T10:57:44.788Z,5.13
2018-12-12T11:00:53.532Z,4.63
2018-12-12T11:03:56.728Z,6.40
2018-12-12T11:06:59.925Z,4.50
2018-12-12T11:10:03.300Z,5.63
2018-12-12T11:13:07.963Z,4.67
2018-12-12T11:16:11.339Z,5.07
2018-12-12T11:19:14.623Z,5.87
2018-12-12T11:22:18.018Z,7.07
2018-12-12T11:25:21.205Z,7.23
2018-12-12T11:28:25.627Z,4.37
2018-12-12T11:31:29.145Z,4.57
2018-12-12T11:34:32.353Z,5.03
2018-12-12T11:37:35.533Z,4.77
2018-12-12T11:40:38.944Z,3.93
2018-12-12T11:43:42.083Z,5.20
2018-12-12T11:46:45.249Z,5.13
2018-12-12T11:49:48.519Z,4.33
2018-12-12T11:52:51.816Z,4.27
2018-12-12T11:55:54.987Z,5.60
2018-12-12T11:58:58.203Z,2.83
2018-12-12T12:02:01.411Z,3.93
2018-12-12T12:05:04.955Z,5.43
2018-12-12T12:08:08.283Z,5.10
2018-12-12T12:11:11.573Z,4.10
2018-12-12T12:14:15.389Z,4.70
2018-12-12T12:17:18.605Z,5.43
2018-12-12T12:20:21.881Z,6.70
2018-12-12T12:23:25.193Z,5.17
2018-12-12T12:26:30.036Z,11.37
2018-12-12T12:29:33.273Z,4.60
2018-12-12T12:32:37.064Z,4.10
2018-12-12T12:35:40.302Z,9.67
2018-12-12T12:38:44.699Z,4.63
2018-12-12T12:41:48.661Z,4.00
2018-12-12T12:44:52.065Z,5.13
2018-12-12T12:47:55.325Z,6.23
2018-12-12T12:50:58.637Z,5.67
2018-12-12T12:54:01.853Z,4.43
2018-12-12T12:57:05.017Z,4.90
2018-12-12T13:00:08.758Z,4.63
2018-12-12T13:03:11.948Z,4.23
2018-12-12T13:06:15.126Z,4.80
2018-12-12T13:09:18.314Z,4.40
2018-12-12T13:12:22.693Z,3.47
2018-12-12T13:15:27.455Z,4.40
2018-12-12T13:18:30.745Z,5.80
2018-12-12T13:21:33.996Z,5.60
2018-12-12T13:24:37.212Z,5.50
2018-12-12T13:27:40.490Z,4.13
2018-12-12T13:30:43.686Z,5.40
2018-12-12T13:33:46.898Z,4.90
2018-12-12T13:36:50.115Z,4.07
2018-12-12T13:39:53.543Z,4.73
2018-12-12T13:42:56.787Z,4.23
2018-12-12T13:45:59.963Z,7.33
2018-12-12T13:49:03.210Z,5.70
2018-12-12T13:52:06.417Z,7.30
2018-12-12T13:55:09.757Z,4.37
2018-12-12T13:58:13.079Z,5.27
2018-12-12T14:01:16.399Z,3.63
2018-12-12T14:04:22.656Z,3.47
2018-12-12T14:07:25.187Z,3.10
2018-12-12T14:10:28.369Z,3.13
2018-12-12T14:13:31.607Z,5.37
2018-12-12T14:16:34.863Z,4.57
2018-12-12T14:19:38.023Z,6.57
2018-12-12T14:22:41.327Z,7.90
2018-12-12T14:25:44.613Z,4.70
2018-12-12T14:28:47.783Z,5.07
2018-12-12T14:31:51.057Z,4.20
2018-12-12T14:34:54.295Z,5.27
2018-12-12T14:37:57.708Z,5.20
2018-12-12T14:41:00.941Z,5.27
2018-12-12T14:44:05.021Z,4.90
2018-12-12T14:47:08.251Z,4.93
2018-12-12T14:50:11.575Z,5.20
2018-12-12T14:53:14.812Z,5.27
2018-12-12T14:56:18.142Z,4.10
2018-12-12T14:59:21.356Z,3.87
2018-12-12T15:02:24.574Z,4.00
2018-12-12T15:05:27.796Z,3.17
2018-12-12T15:08:31.050Z,4.13
2018-12-12T15:11:34.466Z,6.27
2018-12-12T15:14:37.697Z,4.50
2018-12-12T15:17:40.898Z,3.40
2018-12-12T15:20:44.199Z,4.00
2018-12-12T15:23:47.383Z,3.03
2018-12-12T15:26:50.664Z,6.20
2018-12-12T15:29:54.128Z,5.90
2018-12-12T15:32:57.716Z,3.57
2018-12-12T15:36:01.961Z,6.40
2018-12-12T15:39:08.019Z,3.93
2018-12-12T15:42:11.368Z,4.60
2018-12-12T15:45:14.740Z,4.97
2018-12-12T15:48:18.284Z,8.67
2018-12-12T15:51:21.576Z,6.47
2018-12-12T15:54:24.926Z,8.60
2018-12-12T15:57:28.207Z,8.27
2018-12-12T16:00:32.506Z,13.20
2018-12-12T16:03:35.863Z,16.77
2018-12-12T16:06:39.200Z,16.13
2018-12-12T16:09:42.569Z,6.13
2018-12-12T16:12:45.810Z,5.57
2018-12-12T16:15:49.343Z,6.50
2018-12-12T16:18:53.837Z,4.90
2018-12-12T16:21:57.100Z,8.20
2018-12-12T16:25:00.386Z,4.93
2018-12-12T16:28:03.765Z,4.40
2018-12-12T16:31:07.040Z,3.20
2018-12-12T16:34:10.415Z,8.20
2018-12-12T16:37:13.674Z,6.70
2018-12-12T16:40:16.971Z,3.73
2018-12-12T16:43:20.265Z,4.13
2018-12-12T16:46:24.512Z,4.20
2018-12-12T16:49:27.855Z,3.57
2018-12-12T16:52:31.327Z,2.90
2018-12-12T16:55:34.826Z,5.60
2018-12-12T16:58:38.209Z,2.93
2018-12-12T17:01:41.419Z,4.60
2018-12-12T17:04:44.722Z,4.53
2018-12-12T17:07:48.087Z,4.07
2018-12-12T17:10:52.244Z,4.50
2018-12-12T17:13:55.439Z,5.43
2018-12-12T17:16:58.741Z,4.37
2018-12-12T17:20:02.042Z,5.83
2018-12-12T17:23:06.215Z,5.03
2018-12-12T17:26:09.491Z,6.03
2018-12-12T17:29:12.762Z,7.67
2018-12-12T17:32:16.218Z,7.27
2018-12-12T17:35:19.598Z,7.93
2018-12-12T17:38:22.854Z,7.77
2018-12-12T17:41:26.167Z,6.47
2018-12-12T17:44:29.368Z,9.90
2018-12-12T17:47:32.717Z,9.40
2018-12-12T17:50:36.038Z,6.80
2018-12-12T17:53:39.509Z,8.60
2018-12-12T17:56:42.864Z,9.43
2018-12-12T17:59:46.163Z,14.40
2018-12-12T18:02:49.755Z,5.87
2018-12-12T18:05:53.155Z,6.03
2018-12-12T18:08:56.430Z,7.83
2018-12-12T18:11:59.657Z,5.20
2018-12-12T18:15:02.954Z,5.17
2018-12-12T18:18:06.394Z,5.30
2018-12-12T18:21:09.796Z,5.40
2018-12-12T18:24:13.146Z,6.70
2018-12-12T18:27:16.403Z,6.60
2018-12-12T18:30:20.211Z,6.30
2018-12-12T18:33:23.559Z,6.63
2018-12-12T18:36:27.025Z,5.17
2018-12-12T18:39:30.349Z,5.07
2018-12-12T18:42:33.797Z,7.03
2018-12-12T18:45:37.102Z,5.20
2018-12-12T18:48:40.459Z,6.43
2018-12-12T18:51:43.710Z,7.73
2018-12-12T18:54:47.208Z,8.13
2018-12-12T18:57:51.079Z,7.43
2018-12-12T19:00:54.381Z,7.93
2018-12-12T19:03:58.277Z,9.27
2018-12-12T19:07:01.493Z,7.47
2018-12-12T19:10:05.517Z,6.27
2018-12-12T19:13:08.704Z,8.83
2018-12-12T19:16:12.075Z,7.13
2018-12-12T19:19:16.561Z,7.33
2018-12-12T19:22:21.276Z,7.40
2018-12-12T19:25:24.679Z,9.33
2018-12-12T19:28:28.074Z,10.07
2018-12-12T19:31:31.459Z,8.70
2018-12-12T19:34:34.865Z,10.00
2018-12-12T19:37:38.141Z,7.90
2018-12-12T19:40:41.569Z,8.13
2018-12-12T19:43:45.045Z,8.70
2018-12-12T19:46:48.610Z,8.70
2018-12-12T19:49:51.995Z,10.37
2018-12-12T19:52:55.395Z,9.33
2018-12-12T19:55:58.660Z,9.87
2018-12-12T19:59:03.249Z,9.77
2018-12-12T20:02:06.676Z,10.00
2018-12-12T20:05:10.121Z,9.23
2018-12-12T20:08:13.548Z,10.60
2018-12-12T20:11:17.076Z,9.67
2018-12-12T20:14:20.942Z,9.13
2018-12-12T20:17:24.524Z,10.93
2018-12-12T20:20:28.076Z,8.23
2018-12-12T20:23:31.510Z,10.03
2018-12-12T20:26:34.911Z,13.03
2018-12-12T20:29:38.385Z,8.73
2018-12-12T20:32:41.782Z,8.50
2018-12-12T20:35:48.251Z,10.00
2018-12-12T20:38:50.837Z,7.53
2018-12-12T20:41:54.259Z,10.07
2018-12-12T20:44:57.950Z,7.03
2018-12-12T20:48:01.473Z,7.37
2018-12-12T20:51:04.906Z,6.93
2018-12-12T20:54:08.408Z,7.70
2018-12-12T20:57:12.033Z,6.83
2018-12-12T21:00:15.440Z,7.87
2018-12-12T21:03:18.799Z,7.57
2018-12-12T21:06:22.118Z,6.97
2018-12-12T21:09:25.447Z,8.97
2018-12-12T21:12:28.757Z,7.10
2018-12-12T21:15:32.079Z,9.03
2018-12-12T21:18:35.338Z,10.53
2018-12-12T21:21:39.358Z,7.00
2018-12-12T21:24:42.742Z,6.57
2018-12-12T21:27:47.225Z,5.20
2018-12-12T21:30:50.769Z,5.10
2018-12-12T21:33:54.141Z,4.43
2018-12-12T21:36:57.415Z,6.20
2018-12-12T21:40:00.678Z,4.57
2018-12-12T21:43:03.925Z,4.70
2018-12-12T21:46:07.206Z,3.63
2018-12-12T21:49:10.641Z,3.47
2018-12-12T21:52:14.076Z,4.50
2018-12-12T21:55:18.249Z,4.37
2018-12-12T21:58:21.724Z,3.33
2018-12-12T22:01:25.019Z,3.03
2018-12-12T22:04:28.359Z,2.83
2018-12-12T22:07:31.684Z,3.00
2018-12-12T22:10:34.928Z,3.90
2018-12-12T22:13:38.207Z,3.80
2018-12-12T22:16:41.506Z,3.87
2018-12-12T22:19:44.779Z,4.00
2018-12-12T22:22:48.178Z,2.97
2018-12-12T22:25:51.966Z,2.33
2018-12-12T22:28:55.250Z,6.63
2018-12-12T22:31:58.539Z,3.63
2018-12-12T22:35:01.740Z,3.50
2018-12-12T22:38:04.894Z,3.77
2018-12-12T22:41:08.721Z,3.70
2018-12-12T22:44:11.925Z,4.33
2018-12-12T22:47:15.279Z,4.50
2018-12-12T22:50:18.510Z,3.57
2018-12-12T22:53:21.739Z,3.37
2018-12-12T22:56:25.002Z,4.13
2018-12-12T22:59:28.247Z,3.43
2018-12-12T23:02:31.537Z,4.13
2018-12-12T23:05:34.810Z,9.07
2018-12-12T23:08:38.096Z,4.93
2018-12-12T23:11:41.448Z,4.67
2018-12-12T23:14:44.675Z,5.93
2018-12-12T23:17:47.998Z,4.83
2018-12-12T23:20:51.361Z,3.80
2018-12-12T23:23:54.872Z,5.17
2018-12-12T23:26:58.178Z,4.90
2018-12-12T23:30:01.482Z,3.67
2018-12-12T23:33:04.908Z,5.20
2018-12-12T23:36:11.077Z,4.83
2018-12-12T23:39:14.329Z,5.17
2018-12-12T23:42:17.594Z,7.23
2018-12-12T23:45:21.398Z,5.23
2018-12-12T23:48:25.200Z,5.17
2018-12-12T23:51:28.591Z,7.10
2018-12-12T23:54:32.407Z,6.03
2018-12-12T23:57:35.961Z,7.27
